$GPRMC,000000.000,V,5200.675,N,01631.839,E,0.00,0.00,010070,,*16 $GPGGA,000000.000,5200.675,N,01631.839,E,0,00,0.0,0.000,M,0.0,M,,*69 $GPRMC,000000.000,V,5200.591,N,01631.677,E,0.00,0.00,010070,,*1B $GPGGA,000000.000,5200.591,N,01631.677,E,0,00,0.0,0.000,M,0.0,M,,*64 $GPRMC,000000.000,V,5200.586,N,01631.645,E,0.00,0.00,010070,,*1C $GPGGA,000000.000,5200.586,N,01631.645,E,0,00,0.0,0.000,M,0.0,M,,*63 $GPRMC,000000.000,V,5200.580,N,01631.619,E,0.00,0.00,010070,,*13 $GPGGA,000000.000,5200.580,N,01631.619,E,0,00,0.0,0.000,M,0.0,M,,*6C $GPRMC,000000.000,V,5200.562,N,01631.586,E,0.00,0.00,010070,,*1A $GPGGA,000000.000,5200.562,N,01631.586,E,0,00,0.0,0.000,M,0.0,M,,*65 $GPRMC,000000.000,V,5200.546,N,01631.574,E,0.00,0.00,010070,,*11 $GPGGA,000000.000,5200.546,N,01631.574,E,0,00,0.0,0.000,M,0.0,M,,*6E $GPRMC,000000.000,V,5200.533,N,01631.555,E,0.00,0.00,010070,,*10 $GPGGA,000000.000,5200.533,N,01631.555,E,0,00,0.0,0.000,M,0.0,M,,*6F $GPRMC,000000.000,V,5200.516,N,01631.533,E,0.00,0.00,010070,,*17 $GPGGA,000000.000,5200.516,N,01631.533,E,0,00,0.0,0.000,M,0.0,M,,*68 $GPRMC,000000.000,V,5200.484,N,01631.512,E,0.00,0.00,010070,,*1E $GPGGA,000000.000,5200.484,N,01631.512,E,0,00,0.0,0.000,M,0.0,M,,*61 $GPRMC,000000.000,V,5200.453,N,01631.485,E,0.00,0.00,010070,,*1B $GPGGA,000000.000,5200.453,N,01631.485,E,0,00,0.0,0.000,M,0.0,M,,*64 $GPRMC,000000.000,V,5200.422,N,01631.446,E,0.00,0.00,010070,,*12 $GPGGA,000000.000,5200.422,N,01631.446,E,0,00,0.0,0.000,M,0.0,M,,*6D $GPRMC,000000.000,V,5200.354,N,01631.358,E,0.00,0.00,010070,,*1C $GPGGA,000000.000,5200.354,N,01631.358,E,0,00,0.0,0.000,M,0.0,M,,*63 $GPRMC,000000.000,V,5200.195,N,01631.141,E,0.00,0.00,010070,,*19 $GPGGA,000000.000,5200.195,N,01631.141,E,0,00,0.0,0.000,M,0.0,M,,*66 $GPRMC,000000.000,V,5200.168,N,01631.112,E,0.00,0.00,010070,,*1D $GPGGA,000000.000,5200.168,N,01631.112,E,0,00,0.0,0.000,M,0.0,M,,*62 $GPRMC,000000.000,V,5200.110,N,01631.077,E,0.00,0.00,010070,,*10 $GPGGA,000000.000,5200.110,N,01631.077,E,0,00,0.0,0.000,M,0.0,M,,*6F $GPRMC,000000.000,V,5200.050,N,01631.034,E,0.00,0.00,010070,,*12 $GPGGA,000000.000,5200.050,N,01631.034,E,0,00,0.0,0.000,M,0.0,M,,*6D $GPRMC,000000.000,V,5159.844,N,01630.899,E,0.00,0.00,010070,,*1E $GPGGA,000000.000,5159.844,N,01630.899,E,0,00,0.0,0.000,M,0.0,M,,*61 $GPRMC,000000.000,V,5159.741,N,01630.827,E,0.00,0.00,010070,,*11 $GPGGA,000000.000,5159.741,N,01630.827,E,0,00,0.0,0.000,M,0.0,M,,*6E $GPRMC,000000.000,V,5159.653,N,01630.759,E,0.00,0.00,010070,,*15 $GPGGA,000000.000,5159.653,N,01630.759,E,0,00,0.0,0.000,M,0.0,M,,*6A $GPRMC,000000.000,V,5159.545,N,01630.665,E,0.00,0.00,010070,,*1F $GPGGA,000000.000,5159.545,N,01630.665,E,0,00,0.0,0.000,M,0.0,M,,*60 $GPRMC,000000.000,V,5159.403,N,01630.544,E,0.00,0.00,010070,,*1C $GPGGA,000000.000,5159.403,N,01630.544,E,0,00,0.0,0.000,M,0.0,M,,*63 $GPRMC,000000.000,V,5159.268,N,01630.426,E,0.00,0.00,010070,,*12 $GPGGA,000000.000,5159.268,N,01630.426,E,0,00,0.0,0.000,M,0.0,M,,*6D $GPRMC,000000.000,V,5159.150,N,01630.325,E,0.00,0.00,010070,,*1E $GPGGA,000000.000,5159.150,N,01630.325,E,0,00,0.0,0.000,M,0.0,M,,*61 $GPRMC,000000.000,V,5159.082,N,01630.267,E,0.00,0.00,010070,,*17 $GPGGA,000000.000,5159.082,N,01630.267,E,0,00,0.0,0.000,M,0.0,M,,*68 $GPRMC,000000.000,V,5159.065,N,01630.257,E,0.00,0.00,010070,,*1D $GPGGA,000000.000,5159.065,N,01630.257,E,0,00,0.0,0.000,M,0.0,M,,*62 $GPRMC,000000.000,V,5159.033,N,01630.248,E,0.00,0.00,010070,,*10 $GPGGA,000000.000,5159.033,N,01630.248,E,0,00,0.0,0.000,M,0.0,M,,*6F $GPRMC,000000.000,V,5159.027,N,01630.238,E,0.00,0.00,010070,,*12 $GPGGA,000000.000,5159.027,N,01630.238,E,0,00,0.0,0.000,M,0.0,M,,*6D $GPRMC,000000.000,V,5159.020,N,01630.219,E,0.00,0.00,010070,,*16 $GPGGA,000000.000,5159.020,N,01630.219,E,0,00,0.0,0.000,M,0.0,M,,*69 $GPRMC,000000.000,V,5159.016,N,01630.178,E,0.00,0.00,010070,,*17 $GPGGA,000000.000,5159.016,N,01630.178,E,0,00,0.0,0.000,M,0.0,M,,*68 $GPRMC,000000.000,V,5159.014,N,01630.143,E,0.00,0.00,010070,,*1D $GPGGA,000000.000,5159.014,N,01630.143,E,0,00,0.0,0.000,M,0.0,M,,*62 $GPRMC,000000.000,V,5159.008,N,01630.114,E,0.00,0.00,010070,,*12 $GPGGA,000000.000,5159.008,N,01630.114,E,0,00,0.0,0.000,M,0.0,M,,*6D $GPRMC,000000.000,V,5158.979,N,01630.029,E,0.00,0.00,010070,,*13 $GPGGA,000000.000,5158.979,N,01630.029,E,0,00,0.0,0.000,M,0.0,M,,*6C $GPRMC,000000.000,V,5158.935,N,01629.890,E,0.00,0.00,010070,,*19 $GPGGA,000000.000,5158.935,N,01629.890,E,0,00,0.0,0.000,M,0.0,M,,*66 $GPRMC,000000.000,V,5158.863,N,01629.664,E,0.00,0.00,010070,,*1E $GPGGA,000000.000,5158.863,N,01629.664,E,0,00,0.0,0.000,M,0.0,M,,*61 $GPRMC,000000.000,V,5158.759,N,01629.339,E,0.00,0.00,010070,,*15 $GPGGA,000000.000,5158.759,N,01629.339,E,0,00,0.0,0.000,M,0.0,M,,*6A $GPRMC,000000.000,V,5158.669,N,01629.055,E,0.00,0.00,010070,,*1E $GPGGA,000000.000,5158.669,N,01629.055,E,0,00,0.0,0.000,M,0.0,M,,*61 $GPRMC,000000.000,V,5158.563,N,01628.727,E,0.00,0.00,010070,,*14 $GPGGA,000000.000,5158.563,N,01628.727,E,0,00,0.0,0.000,M,0.0,M,,*6B $GPRMC,000000.000,V,5158.463,N,01628.415,E,0.00,0.00,010070,,*17 $GPGGA,000000.000,5158.463,N,01628.415,E,0,00,0.0,0.000,M,0.0,M,,*68 $GPRMC,000000.000,V,5158.439,N,01628.331,E,0.00,0.00,010070,,*19 $GPGGA,000000.000,5158.439,N,01628.331,E,0,00,0.0,0.000,M,0.0,M,,*66 $GPRMC,000000.000,V,5158.472,N,01628.327,E,0.00,0.00,010070,,*11 $GPGGA,000000.000,5158.472,N,01628.327,E,0,00,0.0,0.000,M,0.0,M,,*6E $GPRMC,000000.000,V,5158.493,N,01628.325,E,0.00,0.00,010070,,*1C $GPGGA,000000.000,5158.493,N,01628.325,E,0,00,0.0,0.000,M,0.0,M,,*63 $GPRMC,000000.000,V,5158.511,N,01628.321,E,0.00,0.00,010070,,*13 $GPGGA,000000.000,5158.511,N,01628.321,E,0,00,0.0,0.000,M,0.0,M,,*6C $GPRMC,000000.000,V,5158.528,N,01628.312,E,0.00,0.00,010070,,*19 $GPGGA,000000.000,5158.528,N,01628.312,E,0,00,0.0,0.000,M,0.0,M,,*66 $GPRMC,000000.000,V,5158.557,N,01628.285,E,0.00,0.00,010070,,*1E $GPGGA,000000.000,5158.557,N,01628.285,E,0,00,0.0,0.000,M,0.0,M,,*61 $GPRMC,000000.000,V,5158.588,N,01628.255,E,0.00,0.00,010070,,*11 $GPGGA,000000.000,5158.588,N,01628.255,E,0,00,0.0,0.000,M,0.0,M,,*6E $GPRMC,000000.000,V,5158.618,N,01628.226,E,0.00,0.00,010070,,*1F $GPGGA,000000.000,5158.618,N,01628.226,E,0,00,0.0,0.000,M,0.0,M,,*60 $GPRMC,000000.000,V,5158.636,N,01628.211,E,0.00,0.00,010070,,*17 $GPGGA,000000.000,5158.636,N,01628.211,E,0,00,0.0,0.000,M,0.0,M,,*68 $GPRMC,000000.000,V,5158.664,N,01628.196,E,0.00,0.00,010070,,*1C $GPGGA,000000.000,5158.664,N,01628.196,E,0,00,0.0,0.000,M,0.0,M,,*63 $GPRMC,000000.000,V,5158.681,N,01628.187,E,0.00,0.00,010070,,*17 $GPGGA,000000.000,5158.681,N,01628.187,E,0,00,0.0,0.000,M,0.0,M,,*68 $GPRMC,000000.000,V,5158.779,N,01628.193,E,0.00,0.00,010070,,*14 $GPGGA,000000.000,5158.779,N,01628.193,E,0,00,0.0,0.000,M,0.0,M,,*6B $GPRMC,000000.000,V,5158.876,N,01628.204,E,0.00,0.00,010070,,*19 $GPGGA,000000.000,5158.876,N,01628.204,E,0,00,0.0,0.000,M,0.0,M,,*66 $GPRMC,000000.000,V,5158.930,N,01628.209,E,0.00,0.00,010070,,*17 $GPGGA,000000.000,5158.930,N,01628.209,E,0,00,0.0,0.000,M,0.0,M,,*68 $GPRMC,000000.000,V,5159.031,N,01628.291,E,0.00,0.00,010070,,*1F $GPGGA,000000.000,5159.031,N,01628.291,E,0,00,0.0,0.000,M,0.0,M,,*60 $GPRMC,000000.000,V,5159.100,N,01628.347,E,0.00,0.00,010070,,*16 $GPGGA,000000.000,5159.100,N,01628.347,E,0,00,0.0,0.000,M,0.0,M,,*69 $GPRMC,000000.000,V,5159.244,N,01628.466,E,0.00,0.00,010070,,*11 $GPGGA,000000.000,5159.244,N,01628.466,E,0,00,0.0,0.000,M,0.0,M,,*6E $GPRMC,000000.000,V,5159.318,N,01628.522,E,0.00,0.00,010070,,*18 $GPGGA,000000.000,5159.318,N,01628.522,E,0,00,0.0,0.000,M,0.0,M,,*67 $GPRMC,000000.000,V,5159.338,N,01628.528,E,0.00,0.00,010070,,*10 $GPGGA,000000.000,5159.338,N,01628.528,E,0,00,0.0,0.000,M,0.0,M,,*6F $GPRMC,000000.000,V,5159.395,N,01628.537,E,0.00,0.00,010070,,*19 $GPGGA,000000.000,5159.395,N,01628.537,E,0,00,0.0,0.000,M,0.0,M,,*66 $GPRMC,000000.000,V,5159.431,N,01628.466,E,0.00,0.00,010070,,*15 $GPGGA,000000.000,5159.431,N,01628.466,E,0,00,0.0,0.000,M,0.0,M,,*6A $GPRMC,000000.000,V,5159.449,N,01628.425,E,0.00,0.00,010070,,*1D $GPGGA,000000.000,5159.449,N,01628.425,E,0,00,0.0,0.000,M,0.0,M,,*62 $GPRMC,000000.000,V,5159.460,N,01628.428,E,0.00,0.00,010070,,*1B $GPGGA,000000.000,5159.460,N,01628.428,E,0,00,0.0,0.000,M,0.0,M,,*64 $GPRMC,000000.000,V,5159.485,N,01628.455,E,0.00,0.00,010070,,*1A $GPGGA,000000.000,5159.485,N,01628.455,E,0,00,0.0,0.000,M,0.0,M,,*65 $GPRMC,000000.000,V,5159.536,N,01628.500,E,0.00,0.00,010070,,*12 $GPGGA,000000.000,5159.536,N,01628.500,E,0,00,0.0,0.000,M,0.0,M,,*6D $GPRMC,000000.000,V,5159.562,N,01628.522,E,0.00,0.00,010070,,*13 $GPGGA,000000.000,5159.562,N,01628.522,E,0,00,0.0,0.000,M,0.0,M,,*6C $GPRMC,000000.000,V,5159.582,N,01628.543,E,0.00,0.00,010070,,*1A $GPGGA,000000.000,5159.582,N,01628.543,E,0,00,0.0,0.000,M,0.0,M,,*65 $GPRMC,000000.000,V,5159.593,N,01628.554,E,0.00,0.00,010070,,*1C $GPGGA,000000.000,5159.593,N,01628.554,E,0,00,0.0,0.000,M,0.0,M,,*63 $GPRMC,000000.000,V,5159.606,N,01628.556,E,0.00,0.00,010070,,*11 $GPGGA,000000.000,5159.606,N,01628.556,E,0,00,0.0,0.000,M,0.0,M,,*6E $GPRMC,000000.000,V,5159.630,N,01628.565,E,0.00,0.00,010070,,*14 $GPGGA,000000.000,5159.630,N,01628.565,E,0,00,0.0,0.000,M,0.0,M,,*6B $GPRMC,000000.000,V,5159.669,N,01628.586,E,0.00,0.00,010070,,*15 $GPGGA,000000.000,5159.669,N,01628.586,E,0,00,0.0,0.000,M,0.0,M,,*6A $GPRMC,000000.000,V,5159.774,N,01628.646,E,0.00,0.00,010070,,*17 $GPGGA,000000.000,5159.774,N,01628.646,E,0,00,0.0,0.000,M,0.0,M,,*68 $GPRMC,000000.000,V,5159.865,N,01628.701,E,0.00,0.00,010070,,*1A $GPGGA,000000.000,5159.865,N,01628.701,E,0,00,0.0,0.000,M,0.0,M,,*65 $GPRMC,000000.000,V,5159.976,N,01628.762,E,0.00,0.00,010070,,*1C $GPGGA,000000.000,5159.976,N,01628.762,E,0,00,0.0,0.000,M,0.0,M,,*63 $GPRMC,000000.000,V,5200.037,N,01628.799,E,0.00,0.00,010070,,*1B $GPGGA,000000.000,5200.037,N,01628.799,E,0,00,0.0,0.000,M,0.0,M,,*64 $GPRMC,000000.000,V,5200.065,N,01628.815,E,0.00,0.00,010070,,*17 $GPGGA,000000.000,5200.065,N,01628.815,E,0,00,0.0,0.000,M,0.0,M,,*68 $GPRMC,000000.000,V,5200.078,N,01628.817,E,0.00,0.00,010070,,*19 $GPGGA,000000.000,5200.078,N,01628.817,E,0,00,0.0,0.000,M,0.0,M,,*66 $GPRMC,000000.000,V,5200.159,N,01628.782,E,0.00,0.00,010070,,*18 $GPGGA,000000.000,5200.159,N,01628.782,E,0,00,0.0,0.000,M,0.0,M,,*67 $GPRMC,000000.000,V,5200.285,N,01628.726,E,0.00,0.00,010070,,*14 $GPGGA,000000.000,5200.285,N,01628.726,E,0,00,0.0,0.000,M,0.0,M,,*6B $GPRMC,000000.000,V,5200.387,N,01628.682,E,0.00,0.00,010070,,*18 $GPGGA,000000.000,5200.387,N,01628.682,E,0,00,0.0,0.000,M,0.0,M,,*67 $GPRMC,000000.000,V,5200.447,N,01628.661,E,0.00,0.00,010070,,*1E $GPGGA,000000.000,5200.447,N,01628.661,E,0,00,0.0,0.000,M,0.0,M,,*61 $GPRMC,000000.000,V,5200.483,N,01628.661,E,0.00,0.00,010070,,*16 $GPGGA,000000.000,5200.483,N,01628.661,E,0,00,0.0,0.000,M,0.0,M,,*69 $GPRMC,000000.000,V,5200.532,N,01628.665,E,0.00,0.00,010070,,*19 $GPGGA,000000.000,5200.532,N,01628.665,E,0,00,0.0,0.000,M,0.0,M,,*66 $GPRMC,000000.000,V,5200.557,N,01628.677,E,0.00,0.00,010070,,*19 $GPGGA,000000.000,5200.557,N,01628.677,E,0,00,0.0,0.000,M,0.0,M,,*66 $GPRMC,000000.000,V,5200.571,N,01628.689,E,0.00,0.00,010070,,*1C $GPGGA,000000.000,5200.571,N,01628.689,E,0,00,0.0,0.000,M,0.0,M,,*63 $GPRMC,000000.000,V,5200.597,N,01628.759,E,0.00,0.00,010070,,*18 $GPGGA,000000.000,5200.597,N,01628.759,E,0,00,0.0,0.000,M,0.0,M,,*67 $GPRMC,000000.000,V,5200.635,N,01628.833,E,0.00,0.00,010070,,*10 $GPGGA,000000.000,5200.635,N,01628.833,E,0,00,0.0,0.000,M,0.0,M,,*6F $GPRMC,000000.000,V,5200.656,N,01628.868,E,0.00,0.00,010070,,*1B $GPGGA,000000.000,5200.656,N,01628.868,E,0,00,0.0,0.000,M,0.0,M,,*64 $GPRMC,000000.000,V,5200.670,N,01628.894,E,0.00,0.00,010070,,*1C $GPGGA,000000.000,5200.670,N,01628.894,E,0,00,0.0,0.000,M,0.0,M,,*63 $GPRMC,000000.000,V,5200.719,N,01628.979,E,0.00,0.00,010070,,*10 $GPGGA,000000.000,5200.719,N,01628.979,E,0,00,0.0,0.000,M,0.0,M,,*6F $GPRMC,000000.000,V,5200.730,N,01628.981,E,0.00,0.00,010070,,*1C $GPGGA,000000.000,5200.730,N,01628.981,E,0,00,0.0,0.000,M,0.0,M,,*63 $GPRMC,000000.000,V,5200.791,N,01628.994,E,0.00,0.00,010070,,*13 $GPGGA,000000.000,5200.791,N,01628.994,E,0,00,0.0,0.000,M,0.0,M,,*6C $GPRMC,000000.000,V,5201.032,N,01628.932,E,0.00,0.00,010070,,*10 $GPGGA,000000.000,5201.032,N,01628.932,E,0,00,0.0,0.000,M,0.0,M,,*6F $GPRMC,000000.000,V,5201.158,N,01628.915,E,0.00,0.00,010070,,*18 $GPGGA,000000.000,5201.158,N,01628.915,E,0,00,0.0,0.000,M,0.0,M,,*67 $GPRMC,000000.000,V,5201.332,N,01628.880,E,0.00,0.00,010070,,*1B $GPGGA,000000.000,5201.332,N,01628.880,E,0,00,0.0,0.000,M,0.0,M,,*64 $GPRMC,000000.000,V,5201.386,N,01628.835,E,0.00,0.00,010070,,*1A $GPGGA,000000.000,5201.386,N,01628.835,E,0,00,0.0,0.000,M,0.0,M,,*65 $GPRMC,000000.000,V,5201.445,N,01628.788,E,0.00,0.00,010070,,*1B $GPGGA,000000.000,5201.445,N,01628.788,E,0,00,0.0,0.000,M,0.0,M,,*64 $GPRMC,000000.000,V,5201.580,N,01628.687,E,0.00,0.00,010070,,*1D $GPGGA,000000.000,5201.580,N,01628.687,E,0,00,0.0,0.000,M,0.0,M,,*62 $GPRMC,000000.000,V,5201.684,N,01628.596,E,0.00,0.00,010070,,*19 $GPGGA,000000.000,5201.684,N,01628.596,E,0,00,0.0,0.000,M,0.0,M,,*66 $GPRMC,000000.000,V,5201.703,N,01628.589,E,0.00,0.00,010070,,*19 $GPGGA,000000.000,5201.703,N,01628.589,E,0,00,0.0,0.000,M,0.0,M,,*66 $GPRMC,000000.000,V,5201.713,N,01628.575,E,0.00,0.00,010070,,*1B $GPGGA,000000.000,5201.713,N,01628.575,E,0,00,0.0,0.000,M,0.0,M,,*64 $GPRMC,000000.000,V,5201.719,N,01628.556,E,0.00,0.00,010070,,*10 $GPGGA,000000.000,5201.719,N,01628.556,E,0,00,0.0,0.000,M,0.0,M,,*6F $GPRMC,000000.000,V,5201.726,N,01628.522,E,0.00,0.00,010070,,*1F $GPGGA,000000.000,5201.726,N,01628.522,E,0,00,0.0,0.000,M,0.0,M,,*60 $GPRMC,000000.000,V,5201.734,N,01628.497,E,0.00,0.00,010070,,*13 $GPGGA,000000.000,5201.734,N,01628.497,E,0,00,0.0,0.000,M,0.0,M,,*6C $GPRMC,000000.000,V,5201.756,N,01628.480,E,0.00,0.00,010070,,*11 $GPGGA,000000.000,5201.756,N,01628.480,E,0,00,0.0,0.000,M,0.0,M,,*6E $GPRMC,000000.000,V,5201.772,N,01628.493,E,0.00,0.00,010070,,*15 $GPGGA,000000.000,5201.772,N,01628.493,E,0,00,0.0,0.000,M,0.0,M,,*6A $GPRMC,000000.000,V,5201.786,N,01628.506,E,0.00,0.00,010070,,*13 $GPGGA,000000.000,5201.786,N,01628.506,E,0,00,0.0,0.000,M,0.0,M,,*6C $GPRMC,000000.000,V,5201.791,N,01628.524,E,0.00,0.00,010070,,*15 $GPGGA,000000.000,5201.791,N,01628.524,E,0,00,0.0,0.000,M,0.0,M,,*6A $GPRMC,000000.000,V,5201.791,N,01628.549,E,0.00,0.00,010070,,*1E $GPGGA,000000.000,5201.791,N,01628.549,E,0,00,0.0,0.000,M,0.0,M,,*61 $GPRMC,000000.000,V,5201.798,N,01628.557,E,0.00,0.00,010070,,*18 $GPGGA,000000.000,5201.798,N,01628.557,E,0,00,0.0,0.000,M,0.0,M,,*67 $GPRMC,000000.000,V,5201.908,N,01628.504,E,0.00,0.00,010070,,*19 $GPGGA,000000.000,5201.908,N,01628.504,E,0,00,0.0,0.000,M,0.0,M,,*66 $GPRMC,000000.000,V,5202.021,N,01628.452,E,0.00,0.00,010070,,*1A $GPGGA,000000.000,5202.021,N,01628.452,E,0,00,0.0,0.000,M,0.0,M,,*65 $GPRMC,000000.000,V,5202.136,N,01628.400,E,0.00,0.00,010070,,*1A $GPGGA,000000.000,5202.136,N,01628.400,E,0,00,0.0,0.000,M,0.0,M,,*65 $GPRMC,000000.000,V,5202.229,N,01628.355,E,0.00,0.00,010070,,*10 $GPGGA,000000.000,5202.229,N,01628.355,E,0,00,0.0,0.000,M,0.0,M,,*6F $GPRMC,000000.000,V,5202.255,N,01628.390,E,0.00,0.00,010070,,*12 $GPGGA,000000.000,5202.255,N,01628.390,E,0,00,0.0,0.000,M,0.0,M,,*6D $GPRMC,000000.000,V,5202.266,N,01628.396,E,0.00,0.00,010070,,*14 $GPGGA,000000.000,5202.266,N,01628.396,E,0,00,0.0,0.000,M,0.0,M,,*6B $GPRMC,000000.000,V,5202.289,N,01628.369,E,0.00,0.00,010070,,*15 $GPGGA,000000.000,5202.289,N,01628.369,E,0,00,0.0,0.000,M,0.0,M,,*6A $GPRMC,000000.000,V,5202.343,N,01628.303,E,0.00,0.00,010070,,*1E $GPGGA,000000.000,5202.343,N,01628.303,E,0,00,0.0,0.000,M,0.0,M,,*61 $GPRMC,000000.000,V,5202.377,N,01628.276,E,0.00,0.00,010070,,*1A $GPGGA,000000.000,5202.377,N,01628.276,E,0,00,0.0,0.000,M,0.0,M,,*65 $GPRMC,000000.000,V,5202.467,N,01628.198,E,0.00,0.00,010070,,*1F $GPGGA,000000.000,5202.467,N,01628.198,E,0,00,0.0,0.000,M,0.0,M,,*60 $GPRMC,000000.000,V,5202.515,N,01628.123,E,0.00,0.00,010070,,*1B $GPGGA,000000.000,5202.515,N,01628.123,E,0,00,0.0,0.000,M,0.0,M,,*64 $GPRMC,000000.000,V,5202.652,N,01627.881,E,0.00,0.00,010070,,*15 $GPGGA,000000.000,5202.652,N,01627.881,E,0,00,0.0,0.000,M,0.0,M,,*6A $GPRMC,000000.000,V,5202.754,N,01627.700,E,0.00,0.00,010070,,*14 $GPGGA,000000.000,5202.754,N,01627.700,E,0,00,0.0,0.000,M,0.0,M,,*6B $GPRMC,000000.000,V,5202.762,N,01627.702,E,0.00,0.00,010070,,*13 $GPGGA,000000.000,5202.762,N,01627.702,E,0,00,0.0,0.000,M,0.0,M,,*6C $GPRMC,000000.000,V,5202.799,N,01627.773,E,0.00,0.00,010070,,*11 $GPGGA,000000.000,5202.799,N,01627.773,E,0,00,0.0,0.000,M,0.0,M,,*6E $GPRMC,000000.000,V,5202.864,N,01627.929,E,0.00,0.00,010070,,*1D $GPGGA,000000.000,5202.864,N,01627.929,E,0,00,0.0,0.000,M,0.0,M,,*62 $GPRMC,000000.000,V,5202.884,N,01627.984,E,0.00,0.00,010070,,*14 $GPGGA,000000.000,5202.884,N,01627.984,E,0,00,0.0,0.000,M,0.0,M,,*6B $GPRMC,000000.000,V,5202.974,N,01628.212,E,0.00,0.00,010070,,*11 $GPGGA,000000.000,5202.974,N,01628.212,E,0,00,0.0,0.000,M,0.0,M,,*6E $GPRMC,000000.000,V,5203.054,N,01628.406,E,0.00,0.00,010070,,*18 $GPGGA,000000.000,5203.054,N,01628.406,E,0,00,0.0,0.000,M,0.0,M,,*67 $GPRMC,000000.000,V,5203.174,N,01628.661,E,0.00,0.00,010070,,*18 $GPGGA,000000.000,5203.174,N,01628.661,E,0,00,0.0,0.000,M,0.0,M,,*67 $GPRMC,000000.000,V,5203.266,N,01628.848,E,0.00,0.00,010070,,*1D $GPGGA,000000.000,5203.266,N,01628.848,E,0,00,0.0,0.000,M,0.0,M,,*62 $GPRMC,000000.000,V,5203.343,N,01629.013,E,0.00,0.00,010070,,*1C $GPGGA,000000.000,5203.343,N,01629.013,E,0,00,0.0,0.000,M,0.0,M,,*63 $GPRMC,000000.000,V,5203.349,N,01629.031,E,0.00,0.00,010070,,*16 $GPGGA,000000.000,5203.349,N,01629.031,E,0,00,0.0,0.000,M,0.0,M,,*69 $GPRMC,000000.000,V,5203.352,N,01629.055,E,0.00,0.00,010070,,*1E $GPGGA,000000.000,5203.352,N,01629.055,E,0,00,0.0,0.000,M,0.0,M,,*61 $GPRMC,000000.000,V,5203.348,N,01629.081,E,0.00,0.00,010070,,*1C $GPGGA,000000.000,5203.348,N,01629.081,E,0,00,0.0,0.000,M,0.0,M,,*63 $GPRMC,000000.000,V,5203.327,N,01629.227,E,0.00,0.00,010070,,*1B $GPGGA,000000.000,5203.327,N,01629.227,E,0,00,0.0,0.000,M,0.0,M,,*64 $GPRMC,000000.000,V,5203.328,N,01629.245,E,0.00,0.00,010070,,*10 $GPGGA,000000.000,5203.328,N,01629.245,E,0,00,0.0,0.000,M,0.0,M,,*6F $GPRMC,000000.000,V,5203.335,N,01629.261,E,0.00,0.00,010070,,*1A $GPGGA,000000.000,5203.335,N,01629.261,E,0,00,0.0,0.000,M,0.0,M,,*65 $GPRMC,000000.000,V,5203.370,N,01629.328,E,0.00,0.00,010070,,*17 $GPGGA,000000.000,5203.370,N,01629.328,E,0,00,0.0,0.000,M,0.0,M,,*68 $GPRMC,000000.000,V,5203.380,N,01629.323,E,0.00,0.00,010070,,*13 $GPGGA,000000.000,5203.380,N,01629.323,E,0,00,0.0,0.000,M,0.0,M,,*6C $GPRMC,000000.000,V,5203.739,N,01629.416,E,0.00,0.00,010070,,*14 $GPGGA,000000.000,5203.739,N,01629.416,E,0,00,0.0,0.000,M,0.0,M,,*6B $GPRMC,000000.000,V,5203.857,N,01629.438,E,0.00,0.00,010070,,*1F $GPGGA,000000.000,5203.857,N,01629.438,E,0,00,0.0,0.000,M,0.0,M,,*60 $GPRMC,000000.000,V,5203.954,N,01629.417,E,0.00,0.00,010070,,*10 $GPGGA,000000.000,5203.954,N,01629.417,E,0,00,0.0,0.000,M,0.0,M,,*6F $GPRMC,000000.000,V,5203.996,N,01629.411,E,0.00,0.00,010070,,*18 $GPGGA,000000.000,5203.996,N,01629.411,E,0,00,0.0,0.000,M,0.0,M,,*67 $GPRMC,000000.000,V,5204.034,N,01629.420,E,0.00,0.00,010070,,*1C $GPGGA,000000.000,5204.034,N,01629.420,E,0,00,0.0,0.000,M,0.0,M,,*63 $GPRMC,000000.000,V,5204.055,N,01629.429,E,0.00,0.00,010070,,*12 $GPGGA,000000.000,5204.055,N,01629.429,E,0,00,0.0,0.000,M,0.0,M,,*6D $GPRMC,000000.000,V,5204.063,N,01629.433,E,0.00,0.00,010070,,*1C $GPGGA,000000.000,5204.063,N,01629.433,E,0,00,0.0,0.000,M,0.0,M,,*63 $GPRMC,000000.000,V,5204.156,N,01629.861,E,0.00,0.00,010070,,*10 $GPGGA,000000.000,5204.156,N,01629.861,E,0,00,0.0,0.000,M,0.0,M,,*6F $GPRMC,000000.000,V,5204.163,N,01629.913,E,0.00,0.00,010070,,*12 $GPGGA,000000.000,5204.163,N,01629.913,E,0,00,0.0,0.000,M,0.0,M,,*6D $GPRMC,000000.000,V,5204.178,N,01630.118,E,0.00,0.00,010070,,*13 $GPGGA,000000.000,5204.178,N,01630.118,E,0,00,0.0,0.000,M,0.0,M,,*6C $GPRMC,000000.000,V,5204.204,N,01630.429,E,0.00,0.00,010070,,*1C $GPGGA,000000.000,5204.204,N,01630.429,E,0,00,0.0,0.000,M,0.0,M,,*63 $GPRMC,000000.000,V,5204.472,N,01630.311,E,0.00,0.00,010070,,*17 $GPGGA,000000.000,5204.472,N,01630.311,E,0,00,0.0,0.000,M,0.0,M,,*68 $GPRMC,000000.000,V,5204.504,N,01630.296,E,0.00,0.00,010070,,*19 $GPGGA,000000.000,5204.504,N,01630.296,E,0,00,0.0,0.000,M,0.0,M,,*66 $GPRMC,000000.000,V,5204.522,N,01630.289,E,0.00,0.00,010070,,*13 $GPGGA,000000.000,5204.522,N,01630.289,E,0,00,0.0,0.000,M,0.0,M,,*6C $GPRMC,000000.000,V,5204.539,N,01630.264,E,0.00,0.00,010070,,*1A $GPGGA,000000.000,5204.539,N,01630.264,E,0,00,0.0,0.000,M,0.0,M,,*65 $GPRMC,000000.000,V,5204.548,N,01630.242,E,0.00,0.00,010070,,*18 $GPGGA,000000.000,5204.548,N,01630.242,E,0,00,0.0,0.000,M,0.0,M,,*67 $GPRMC,000000.000,V,5204.555,N,01630.218,E,0.00,0.00,010070,,*1B $GPGGA,000000.000,5204.555,N,01630.218,E,0,00,0.0,0.000,M,0.0,M,,*64 $GPRMC,000000.000,V,5204.558,N,01630.200,E,0.00,0.00,010070,,*1F $GPGGA,000000.000,5204.558,N,01630.200,E,0,00,0.0,0.000,M,0.0,M,,*60 $GPRMC,000000.000,V,5204.561,N,01630.174,E,0.00,0.00,010070,,*15 $GPGGA,000000.000,5204.561,N,01630.174,E,0,00,0.0,0.000,M,0.0,M,,*6A $GPRMC,000000.000,V,5204.569,N,01630.152,E,0.00,0.00,010070,,*19 $GPGGA,000000.000,5204.569,N,01630.152,E,0,00,0.0,0.000,M,0.0,M,,*66 $GPRMC,000000.000,V,5204.588,N,01630.120,E,0.00,0.00,010070,,*13 $GPGGA,000000.000,5204.588,N,01630.120,E,0,00,0.0,0.000,M,0.0,M,,*6C $GPRMC,000000.000,V,5204.602,N,01630.090,E,0.00,0.00,010070,,*18 $GPGGA,000000.000,5204.602,N,01630.090,E,0,00,0.0,0.000,M,0.0,M,,*67 $GPRMC,000000.000,V,5204.623,N,01630.069,E,0.00,0.00,010070,,*1D $GPGGA,000000.000,5204.623,N,01630.069,E,0,00,0.0,0.000,M,0.0,M,,*62 $GPRMC,000000.000,V,5204.653,N,01630.047,E,0.00,0.00,010070,,*16 $GPGGA,000000.000,5204.653,N,01630.047,E,0,00,0.0,0.000,M,0.0,M,,*69 $GPRMC,000000.000,V,5204.676,N,01630.029,E,0.00,0.00,010070,,*19 $GPGGA,000000.000,5204.676,N,01630.029,E,0,00,0.0,0.000,M,0.0,M,,*66 $GPRMC,000000.000,V,5204.705,N,01630.018,E,0.00,0.00,010070,,*1E $GPGGA,000000.000,5204.705,N,01630.018,E,0,00,0.0,0.000,M,0.0,M,,*61 $GPRMC,000000.000,V,5204.743,N,01630.013,E,0.00,0.00,010070,,*17 $GPGGA,000000.000,5204.743,N,01630.013,E,0,00,0.0,0.000,M,0.0,M,,*68 $GPRMC,000000.000,V,5204.812,N,01630.003,E,0.00,0.00,010070,,*1D $GPGGA,000000.000,5204.812,N,01630.003,E,0,00,0.0,0.000,M,0.0,M,,*62 $GPRMC,000000.000,V,5204.933,N,01629.984,E,0.00,0.00,010070,,*11 $GPGGA,000000.000,5204.933,N,01629.984,E,0,00,0.0,0.000,M,0.0,M,,*6E $GPRMC,000000.000,V,5205.010,N,01629.971,E,0.00,0.00,010070,,*12 $GPGGA,000000.000,5205.010,N,01629.971,E,0,00,0.0,0.000,M,0.0,M,,*6D $GPRMC,000000.000,V,5205.009,N,01630.084,E,0.00,0.00,010070,,*11 $GPGGA,000000.000,5205.009,N,01630.084,E,0,00,0.0,0.000,M,0.0,M,,*6E $GPRMC,000000.000,V,5205.005,N,01630.151,E,0.00,0.00,010070,,*14 $GPGGA,000000.000,5205.005,N,01630.151,E,0,00,0.0,0.000,M,0.0,M,,*6B $GPRMC,000000.000,V,5205.007,N,01630.210,E,0.00,0.00,010070,,*10 $GPGGA,000000.000,5205.007,N,01630.210,E,0,00,0.0,0.000,M,0.0,M,,*6F $GPRMC,000000.000,V,5205.012,N,01630.300,E,0.00,0.00,010070,,*14 $GPGGA,000000.000,5205.012,N,01630.300,E,0,00,0.0,0.000,M,0.0,M,,*6B $GPRMC,000000.000,V,5205.024,N,01630.327,E,0.00,0.00,010070,,*14 $GPGGA,000000.000,5205.024,N,01630.327,E,0,00,0.0,0.000,M,0.0,M,,*6B $GPRMC,000000.000,V,5205.038,N,01630.361,E,0.00,0.00,010070,,*1B $GPGGA,000000.000,5205.038,N,01630.361,E,0,00,0.0,0.000,M,0.0,M,,*64 $GPRMC,000000.000,V,5205.048,N,01630.437,E,0.00,0.00,010070,,*18 $GPGGA,000000.000,5205.048,N,01630.437,E,0,00,0.0,0.000,M,0.0,M,,*67 $GPRMC,000000.000,V,5205.058,N,01630.499,E,0.00,0.00,010070,,*1D $GPGGA,000000.000,5205.058,N,01630.499,E,0,00,0.0,0.000,M,0.0,M,,*62 $GPRMC,000000.000,V,5205.078,N,01630.589,E,0.00,0.00,010070,,*1F $GPGGA,000000.000,5205.078,N,01630.589,E,0,00,0.0,0.000,M,0.0,M,,*60 $GPRMC,000000.000,V,5205.163,N,01631.056,E,0.00,0.00,010070,,*12 $GPGGA,000000.000,5205.163,N,01631.056,E,0,00,0.0,0.000,M,0.0,M,,*6D $GPRMC,000000.000,V,5205.170,N,01631.090,E,0.00,0.00,010070,,*1A $GPGGA,000000.000,5205.170,N,01631.090,E,0,00,0.0,0.000,M,0.0,M,,*65 $GPRMC,000000.000,V,5205.175,N,01631.120,E,0.00,0.00,010070,,*15 $GPGGA,000000.000,5205.175,N,01631.120,E,0,00,0.0,0.000,M,0.0,M,,*6A $GPRMC,000000.000,V,5205.170,N,01631.163,E,0.00,0.00,010070,,*17 $GPGGA,000000.000,5205.170,N,01631.163,E,0,00,0.0,0.000,M,0.0,M,,*68 $GPRMC,000000.000,V,5205.171,N,01631.184,E,0.00,0.00,010070,,*1F $GPGGA,000000.000,5205.171,N,01631.184,E,0,00,0.0,0.000,M,0.0,M,,*60 $GPRMC,000000.000,V,5205.404,N,01631.662,E,0.00,0.00,010070,,*17 $GPGGA,000000.000,5205.404,N,01631.662,E,0,00,0.0,0.000,M,0.0,M,,*68 $GPRMC,000000.000,V,5205.569,N,01631.988,E,0.00,0.00,010070,,*16 $GPGGA,000000.000,5205.569,N,01631.988,E,0,00,0.0,0.000,M,0.0,M,,*69 $GPRMC,000000.000,V,5205.645,N,01631.966,E,0.00,0.00,010070,,*1B $GPGGA,000000.000,5205.645,N,01631.966,E,0,00,0.0,0.000,M,0.0,M,,*64 $GPRMC,000000.000,V,5205.791,N,01631.952,E,0.00,0.00,010070,,*14 $GPGGA,000000.000,5205.791,N,01631.952,E,0,00,0.0,0.000,M,0.0,M,,*6B $GPRMC,000000.000,V,5206.183,N,01631.912,E,0.00,0.00,010070,,*16 $GPGGA,000000.000,5206.183,N,01631.912,E,0,00,0.0,0.000,M,0.0,M,,*69 $GPRMC,000000.000,V,5206.597,N,01631.872,E,0.00,0.00,010070,,*10 $GPGGA,000000.000,5206.597,N,01631.872,E,0,00,0.0,0.000,M,0.0,M,,*6F $GPRMC,000000.000,V,5206.856,N,01631.849,E,0.00,0.00,010070,,*18 $GPGGA,000000.000,5206.856,N,01631.849,E,0,00,0.0,0.000,M,0.0,M,,*67 $GPRMC,000000.000,V,5206.928,N,01632.002,E,0.00,0.00,010070,,*14 $GPGGA,000000.000,5206.928,N,01632.002,E,0,00,0.0,0.000,M,0.0,M,,*6B $GPRMC,000000.000,V,5206.975,N,01632.109,E,0.00,0.00,010070,,*16 $GPGGA,000000.000,5206.975,N,01632.109,E,0,00,0.0,0.000,M,0.0,M,,*69 $GPRMC,000000.000,V,5206.991,N,01632.215,E,0.00,0.00,010070,,*12 $GPGGA,000000.000,5206.991,N,01632.215,E,0,00,0.0,0.000,M,0.0,M,,*6D $GPRMC,000000.000,V,5207.005,N,01632.362,E,0.00,0.00,010070,,*16 $GPGGA,000000.000,5207.005,N,01632.362,E,0,00,0.0,0.000,M,0.0,M,,*69 $GPRMC,000000.000,V,5207.010,N,01632.521,E,0.00,0.00,010070,,*13 $GPGGA,000000.000,5207.010,N,01632.521,E,0,00,0.0,0.000,M,0.0,M,,*6C $GPRMC,000000.000,V,5206.231,N,01633.350,E,0.00,0.00,010070,,*12 $GPGGA,000000.000,5206.231,N,01633.350,E,0,00,0.0,0.000,M,0.0,M,,*6D $GPRMC,000000.000,V,5206.406,N,01633.708,E,0.00,0.00,010070,,*19 $GPGGA,000000.000,5206.406,N,01633.708,E,0,00,0.0,0.000,M,0.0,M,,*66 $GPRMC,000000.000,V,5206.145,N,01634.009,E,0.00,0.00,010070,,*1A $GPGGA,000000.000,5206.145,N,01634.009,E,0,00,0.0,0.000,M,0.0,M,,*65 $GPRMC,000000.000,V,5206.318,N,01634.344,E,0.00,0.00,010070,,*1A $GPGGA,000000.000,5206.318,N,01634.344,E,0,00,0.0,0.000,M,0.0,M,,*65 $GPRMC,000000.000,V,5206.330,N,01634.700,E,0.00,0.00,010070,,*14 $GPGGA,000000.000,5206.330,N,01634.700,E,0,00,0.0,0.000,M,0.0,M,,*6B $GPRMC,000000.000,V,5206.338,N,01634.815,E,0.00,0.00,010070,,*17 $GPGGA,000000.000,5206.338,N,01634.815,E,0,00,0.0,0.000,M,0.0,M,,*68 $GPRMC,000000.000,V,5206.248,N,01635.009,E,0.00,0.00,010070,,*15 $GPGGA,000000.000,5206.248,N,01635.009,E,0,00,0.0,0.000,M,0.0,M,,*6A $GPRMC,000000.000,V,5206.218,N,01635.202,E,0.00,0.00,010070,,*19 $GPGGA,000000.000,5206.218,N,01635.202,E,0,00,0.0,0.000,M,0.0,M,,*66 $GPRMC,000000.000,V,5206.182,N,01635.354,E,0.00,0.00,010070,,*1B $GPGGA,000000.000,5206.182,N,01635.354,E,0,00,0.0,0.000,M,0.0,M,,*64 $GPRMC,000000.000,V,5206.112,N,01635.611,E,0.00,0.00,010070,,*16 $GPGGA,000000.000,5206.112,N,01635.611,E,0,00,0.0,0.000,M,0.0,M,,*69 $GPRMC,000000.000,V,5206.182,N,01636.019,E,0.00,0.00,010070,,*12 $GPGGA,000000.000,5206.182,N,01636.019,E,0,00,0.0,0.000,M,0.0,M,,*6D $GPRMC,000000.000,V,5206.193,N,01636.109,E,0.00,0.00,010070,,*12 $GPGGA,000000.000,5206.193,N,01636.109,E,0,00,0.0,0.000,M,0.0,M,,*6D $GPRMC,000000.000,V,5206.217,N,01636.138,E,0.00,0.00,010070,,*1F $GPGGA,000000.000,5206.217,N,01636.138,E,0,00,0.0,0.000,M,0.0,M,,*60 $GPRMC,000000.000,V,5206.224,N,01636.162,E,0.00,0.00,010070,,*10 $GPGGA,000000.000,5206.224,N,01636.162,E,0,00,0.0,0.000,M,0.0,M,,*6F $GPRMC,000000.000,V,5206.396,N,01636.248,E,0.00,0.00,010070,,*13 $GPGGA,000000.000,5206.396,N,01636.248,E,0,00,0.0,0.000,M,0.0,M,,*6C $GPRMC,000000.000,V,5206.469,N,01636.425,E,0.00,0.00,010070,,*19 $GPGGA,000000.000,5206.469,N,01636.425,E,0,00,0.0,0.000,M,0.0,M,,*66 $GPRMC,000000.000,V,5206.520,N,01636.537,E,0.00,0.00,010070,,*17 $GPGGA,000000.000,5206.520,N,01636.537,E,0,00,0.0,0.000,M,0.0,M,,*68 $GPRMC,000000.000,V,5206.597,N,01636.660,E,0.00,0.00,010070,,*1A $GPGGA,000000.000,5206.597,N,01636.660,E,0,00,0.0,0.000,M,0.0,M,,*65 $GPRMC,000000.000,V,5206.571,N,01636.735,E,0.00,0.00,010070,,*13 $GPGGA,000000.000,5206.571,N,01636.735,E,0,00,0.0,0.000,M,0.0,M,,*6C $GPRMC,000000.000,V,5206.505,N,01636.866,E,0.00,0.00,010070,,*19 $GPGGA,000000.000,5206.505,N,01636.866,E,0,00,0.0,0.000,M,0.0,M,,*66 $GPRMC,000000.000,V,5206.441,N,01636.987,E,0.00,0.00,010070,,*16 $GPGGA,000000.000,5206.441,N,01636.987,E,0,00,0.0,0.000,M,0.0,M,,*69 $GPRMC,000000.000,V,5206.378,N,01637.108,E,0.00,0.00,010070,,*15 $GPGGA,000000.000,5206.378,N,01637.108,E,0,00,0.0,0.000,M,0.0,M,,*6A $GPRMC,000000.000,V,5206.322,N,01637.224,E,0.00,0.00,010070,,*17 $GPGGA,000000.000,5206.322,N,01637.224,E,0,00,0.0,0.000,M,0.0,M,,*68 $GPRMC,000000.000,V,5206.279,N,01637.311,E,0.00,0.00,010070,,*1F $GPGGA,000000.000,5206.279,N,01637.311,E,0,00,0.0,0.000,M,0.0,M,,*60 $GPRMC,000000.000,V,5206.247,N,01637.383,E,0.00,0.00,010070,,*19 $GPGGA,000000.000,5206.247,N,01637.383,E,0,00,0.0,0.000,M,0.0,M,,*66 $GPRMC,000000.000,V,5206.234,N,01637.433,E,0.00,0.00,010070,,*11 $GPGGA,000000.000,5206.234,N,01637.433,E,0,00,0.0,0.000,M,0.0,M,,*6E $GPRMC,000000.000,V,5206.232,N,01637.475,E,0.00,0.00,010070,,*15 $GPGGA,000000.000,5206.232,N,01637.475,E,0,00,0.0,0.000,M,0.0,M,,*6A $GPRMC,000000.000,V,5206.233,N,01637.514,E,0.00,0.00,010070,,*12 $GPGGA,000000.000,5206.233,N,01637.514,E,0,00,0.0,0.000,M,0.0,M,,*6D $GPRMC,000000.000,V,5206.235,N,01637.554,E,0.00,0.00,010070,,*10 $GPGGA,000000.000,5206.235,N,01637.554,E,0,00,0.0,0.000,M,0.0,M,,*6F $GPRMC,000000.000,V,5206.237,N,01637.581,E,0.00,0.00,010070,,*1A $GPGGA,000000.000,5206.237,N,01637.581,E,0,00,0.0,0.000,M,0.0,M,,*65 $GPRMC,000000.000,V,5206.250,N,01637.617,E,0.00,0.00,010070,,*17 $GPGGA,000000.000,5206.250,N,01637.617,E,0,00,0.0,0.000,M,0.0,M,,*68 $GPRMC,000000.000,V,5206.533,N,01637.179,E,0.00,0.00,010070,,*1A $GPGGA,000000.000,5206.533,N,01637.179,E,0,00,0.0,0.000,M,0.0,M,,*65 $GPRMC,000000.000,V,5206.641,N,01636.998,E,0.00,0.00,010070,,*1A $GPGGA,000000.000,5206.641,N,01636.998,E,0,00,0.0,0.000,M,0.0,M,,*65 $GPRMC,000000.000,V,5206.662,N,01637.441,E,0.00,0.00,010070,,*13 $GPGGA,000000.000,5206.662,N,01637.441,E,0,00,0.0,0.000,M,0.0,M,,*6C $GPRMC,000000.000,V,5206.677,N,01637.647,E,0.00,0.00,010070,,*13 $GPGGA,000000.000,5206.677,N,01637.647,E,0,00,0.0,0.000,M,0.0,M,,*6C $GPRMC,000000.000,V,5206.718,N,01637.685,E,0.00,0.00,010070,,*15 $GPGGA,000000.000,5206.718,N,01637.685,E,0,00,0.0,0.000,M,0.0,M,,*6A $GPRMC,000000.000,V,5206.765,N,01637.723,E,0.00,0.00,010070,,*12 $GPGGA,000000.000,5206.765,N,01637.723,E,0,00,0.0,0.000,M,0.0,M,,*6D $GPRMC,000000.000,V,5206.796,N,01637.826,E,0.00,0.00,010070,,*14 $GPGGA,000000.000,5206.796,N,01637.826,E,0,00,0.0,0.000,M,0.0,M,,*6B $GPRMC,000000.000,V,5206.808,N,01637.907,E,0.00,0.00,010070,,*1E $GPGGA,000000.000,5206.808,N,01637.907,E,0,00,0.0,0.000,M,0.0,M,,*61 $GPRMC,000000.000,V,5206.813,N,01637.948,E,0.00,0.00,010070,,*1F $GPGGA,000000.000,5206.813,N,01637.948,E,0,00,0.0,0.000,M,0.0,M,,*60 $GPRMC,000000.000,V,5207.215,N,01637.778,E,0.00,0.00,010070,,*1F $GPGGA,000000.000,5207.215,N,01637.778,E,0,00,0.0,0.000,M,0.0,M,,*60 $GPRMC,000000.000,V,5207.256,N,01637.813,E,0.00,0.00,010070,,*1A $GPGGA,000000.000,5207.256,N,01637.813,E,0,00,0.0,0.000,M,0.0,M,,*65 $GPRMC,000000.000,V,5207.398,N,01637.851,E,0.00,0.00,010070,,*1F $GPGGA,000000.000,5207.398,N,01637.851,E,0,00,0.0,0.000,M,0.0,M,,*60 $GPRMC,000000.000,V,5207.583,N,01637.900,E,0.00,0.00,010070,,*16 $GPGGA,000000.000,5207.583,N,01637.900,E,0,00,0.0,0.000,M,0.0,M,,*69 $GPRMC,000000.000,V,5207.601,N,01637.862,E,0.00,0.00,010070,,*1A $GPGGA,000000.000,5207.601,N,01637.862,E,0,00,0.0,0.000,M,0.0,M,,*65 $GPRMC,000000.000,V,5207.622,N,01637.853,E,0.00,0.00,010070,,*19 $GPGGA,000000.000,5207.622,N,01637.853,E,0,00,0.0,0.000,M,0.0,M,,*66 $GPRMC,000000.000,V,5207.665,N,01637.863,E,0.00,0.00,010070,,*19 $GPGGA,000000.000,5207.665,N,01637.863,E,0,00,0.0,0.000,M,0.0,M,,*66 $GPRMC,000000.000,V,5207.727,N,01637.883,E,0.00,0.00,010070,,*10 $GPGGA,000000.000,5207.727,N,01637.883,E,0,00,0.0,0.000,M,0.0,M,,*6F $GPRMC,000000.000,V,5207.760,N,01637.898,E,0.00,0.00,010070,,*19 $GPGGA,000000.000,5207.760,N,01637.898,E,0,00,0.0,0.000,M,0.0,M,,*66 $GPRMC,000000.000,V,5207.779,N,01637.945,E,0.00,0.00,010070,,*10 $GPGGA,000000.000,5207.779,N,01637.945,E,0,00,0.0,0.000,M,0.0,M,,*6F $GPRMC,000000.000,V,5207.794,N,01637.970,E,0.00,0.00,010070,,*15 $GPGGA,000000.000,5207.794,N,01637.970,E,0,00,0.0,0.000,M,0.0,M,,*6A $GPRMC,000000.000,V,5207.844,N,01638.003,E,0.00,0.00,010070,,*15 $GPGGA,000000.000,5207.844,N,01638.003,E,0,00,0.0,0.000,M,0.0,M,,*6A $GPRMC,000000.000,V,5207.957,N,01638.050,E,0.00,0.00,010070,,*10 $GPGGA,000000.000,5207.957,N,01638.050,E,0,00,0.0,0.000,M,0.0,M,,*6F $GPRMC,000000.000,V,5208.069,N,01638.102,E,0.00,0.00,010070,,*1D $GPGGA,000000.000,5208.069,N,01638.102,E,0,00,0.0,0.000,M,0.0,M,,*62 $GPRMC,000000.000,V,5208.096,N,01638.111,E,0.00,0.00,010070,,*1F $GPGGA,000000.000,5208.096,N,01638.111,E,0,00,0.0,0.000,M,0.0,M,,*60 $GPRMC,000000.000,V,5208.137,N,01637.868,E,0.00,0.00,010070,,*1D $GPGGA,000000.000,5208.137,N,01637.868,E,0,00,0.0,0.000,M,0.0,M,,*62 $GPRMC,000000.000,V,5208.178,N,01637.762,E,0.00,0.00,010070,,*13 $GPGGA,000000.000,5208.178,N,01637.762,E,0,00,0.0,0.000,M,0.0,M,,*6C $GPRMC,000000.000,V,5208.290,N,01637.802,E,0.00,0.00,010070,,*1F $GPGGA,000000.000,5208.290,N,01637.802,E,0,00,0.0,0.000,M,0.0,M,,*60 $GPRMC,000000.000,V,5208.364,N,01637.705,E,0.00,0.00,010070,,*1D $GPGGA,000000.000,5208.364,N,01637.705,E,0,00,0.0,0.000,M,0.0,M,,*62 $GPRMC,000000.000,V,5208.435,N,01637.751,E,0.00,0.00,010070,,*1F $GPGGA,000000.000,5208.435,N,01637.751,E,0,00,0.0,0.000,M,0.0,M,,*60 $GPRMC,000000.000,V,5208.470,N,01637.792,E,0.00,0.00,010070,,*11 $GPGGA,000000.000,5208.470,N,01637.792,E,0,00,0.0,0.000,M,0.0,M,,*6E $GPRMC,000000.000,V,5208.479,N,01637.819,E,0.00,0.00,010070,,*14 $GPGGA,000000.000,5208.479,N,01637.819,E,0,00,0.0,0.000,M,0.0,M,,*6B $GPRMC,000000.000,V,5208.539,N,01637.814,E,0.00,0.00,010070,,*1C $GPGGA,000000.000,5208.539,N,01637.814,E,0,00,0.0,0.000,M,0.0,M,,*63 $GPRMC,000000.000,V,5208.589,N,01638.002,E,0.00,0.00,010070,,*17 $GPGGA,000000.000,5208.589,N,01638.002,E,0,00,0.0,0.000,M,0.0,M,,*68 $GPRMC,000000.000,V,5208.585,N,01638.041,E,0.00,0.00,010070,,*1C $GPGGA,000000.000,5208.585,N,01638.041,E,0,00,0.0,0.000,M,0.0,M,,*63 $GPRMC,000000.000,V,5208.652,N,01638.313,E,0.00,0.00,010070,,*11 $GPGGA,000000.000,5208.652,N,01638.313,E,0,00,0.0,0.000,M,0.0,M,,*6E $GPRMC,000000.000,V,5208.615,N,01638.388,E,0.00,0.00,010070,,*10 $GPGGA,000000.000,5208.615,N,01638.388,E,0,00,0.0,0.000,M,0.0,M,,*6F $GPRMC,000000.000,V,5208.585,N,01638.387,E,0.00,0.00,010070,,*15 $GPGGA,000000.000,5208.585,N,01638.387,E,0,00,0.0,0.000,M,0.0,M,,*6A $GPRMC,000000.000,V,5208.561,N,01638.425,E,0.00,0.00,010070,,*10 $GPGGA,000000.000,5208.561,N,01638.425,E,0,00,0.0,0.000,M,0.0,M,,*6F $GPRMC,000000.000,V,5208.541,N,01638.450,E,0.00,0.00,010070,,*10 $GPGGA,000000.000,5208.541,N,01638.450,E,0,00,0.0,0.000,M,0.0,M,,*6F $GPRMC,000000.000,V,5208.509,N,01638.485,E,0.00,0.00,010070,,*14 $GPGGA,000000.000,5208.509,N,01638.485,E,0,00,0.0,0.000,M,0.0,M,,*6B $GPRMC,000000.000,V,5208.468,N,01638.522,E,0.00,0.00,010070,,*1E $GPGGA,000000.000,5208.468,N,01638.522,E,0,00,0.0,0.000,M,0.0,M,,*61 $GPRMC,000000.000,V,5208.367,N,01638.613,E,0.00,0.00,010070,,*17 $GPGGA,000000.000,5208.367,N,01638.613,E,0,00,0.0,0.000,M,0.0,M,,*68 $GPRMC,000000.000,V,5208.540,N,01639.033,E,0.00,0.00,010070,,*11 $GPGGA,000000.000,5208.540,N,01639.033,E,0,00,0.0,0.000,M,0.0,M,,*6E $GPRMC,000000.000,V,5208.572,N,01639.543,E,0.00,0.00,010070,,*12 $GPGGA,000000.000,5208.572,N,01639.543,E,0,00,0.0,0.000,M,0.0,M,,*6D $GPRMC,000000.000,V,5208.641,N,01639.493,E,0.00,0.00,010070,,*1D $GPGGA,000000.000,5208.641,N,01639.493,E,0,00,0.0,0.000,M,0.0,M,,*62 $GPRMC,000000.000,V,5208.717,N,01639.628,E,0.00,0.00,010070,,*1D $GPGGA,000000.000,5208.717,N,01639.628,E,0,00,0.0,0.000,M,0.0,M,,*62 $GPRMC,000000.000,V,5208.751,N,01639.696,E,0.00,0.00,010070,,*1A $GPGGA,000000.000,5208.751,N,01639.696,E,0,00,0.0,0.000,M,0.0,M,,*65 $GPRMC,000000.000,V,5208.787,N,01639.772,E,0.00,0.00,010070,,*1A $GPGGA,000000.000,5208.787,N,01639.772,E,0,00,0.0,0.000,M,0.0,M,,*65 $GPRMC,000000.000,V,5208.835,N,01639.882,E,0.00,0.00,010070,,*1C $GPGGA,000000.000,5208.835,N,01639.882,E,0,00,0.0,0.000,M,0.0,M,,*63 $GPRMC,000000.000,V,5208.848,N,01639.933,E,0.00,0.00,010070,,*1D $GPGGA,000000.000,5208.848,N,01639.933,E,0,00,0.0,0.000,M,0.0,M,,*62 $GPRMC,000000.000,V,5208.882,N,01640.023,E,0.00,0.00,010070,,*1D $GPGGA,000000.000,5208.882,N,01640.023,E,0,00,0.0,0.000,M,0.0,M,,*62 $GPRMC,000000.000,V,5208.920,N,01640.148,E,0.00,0.00,010070,,*18 $GPGGA,000000.000,5208.920,N,01640.148,E,0,00,0.0,0.000,M,0.0,M,,*67 $GPRMC,000000.000,V,5208.972,N,01640.326,E,0.00,0.00,010070,,*15 $GPGGA,000000.000,5208.972,N,01640.326,E,0,00,0.0,0.000,M,0.0,M,,*6A $GPRMC,000000.000,V,5208.988,N,01640.427,E,0.00,0.00,010070,,*16 $GPGGA,000000.000,5208.988,N,01640.427,E,0,00,0.0,0.000,M,0.0,M,,*69 $GPRMC,000000.000,V,5209.004,N,01640.516,E,0.00,0.00,010070,,*19 $GPGGA,000000.000,5209.004,N,01640.516,E,0,00,0.0,0.000,M,0.0,M,,*66 $GPRMC,000000.000,V,5209.021,N,01640.563,E,0.00,0.00,010070,,*1C $GPGGA,000000.000,5209.021,N,01640.563,E,0,00,0.0,0.000,M,0.0,M,,*63 $GPRMC,000000.000,V,5209.044,N,01640.603,E,0.00,0.00,010070,,*1A $GPGGA,000000.000,5209.044,N,01640.603,E,0,00,0.0,0.000,M,0.0,M,,*65 $GPRMC,000000.000,V,5209.062,N,01640.633,E,0.00,0.00,010070,,*1D $GPGGA,000000.000,5209.062,N,01640.633,E,0,00,0.0,0.000,M,0.0,M,,*62 $GPRMC,000000.000,V,5209.153,N,01640.864,E,0.00,0.00,010070,,*12 $GPGGA,000000.000,5209.153,N,01640.864,E,0,00,0.0,0.000,M,0.0,M,,*6D $GPRMC,000000.000,V,5209.231,N,01641.063,E,0.00,0.00,010070,,*1B $GPGGA,000000.000,5209.231,N,01641.063,E,0,00,0.0,0.000,M,0.0,M,,*64 $GPRMC,000000.000,V,5209.214,N,01641.127,E,0.00,0.00,010070,,*1D $GPGGA,000000.000,5209.214,N,01641.127,E,0,00,0.0,0.000,M,0.0,M,,*62 $GPRMC,000000.000,V,5209.204,N,01641.295,E,0.00,0.00,010070,,*16 $GPGGA,000000.000,5209.204,N,01641.295,E,0,00,0.0,0.000,M,0.0,M,,*69 $GPRMC,000000.000,V,5209.219,N,01641.378,E,0.00,0.00,010070,,*18 $GPGGA,000000.000,5209.219,N,01641.378,E,0,00,0.0,0.000,M,0.0,M,,*67 $GPRMC,000000.000,V,5209.145,N,01641.665,E,0.00,0.00,010070,,*1B $GPGGA,000000.000,5209.145,N,01641.665,E,0,00,0.0,0.000,M,0.0,M,,*64 $GPRMC,000000.000,V,5208.972,N,01642.303,E,0.00,0.00,010070,,*10 $GPGGA,000000.000,5208.972,N,01642.303,E,0,00,0.0,0.000,M,0.0,M,,*6F $GPRMC,000000.000,V,5208.859,N,01642.724,E,0.00,0.00,010070,,*19 $GPGGA,000000.000,5208.859,N,01642.724,E,0,00,0.0,0.000,M,0.0,M,,*66 $GPRMC,000000.000,V,5208.822,N,01642.883,E,0.00,0.00,010070,,*17 $GPGGA,000000.000,5208.822,N,01642.883,E,0,00,0.0,0.000,M,0.0,M,,*68 $GPRMC,000000.000,V,5208.626,N,01643.305,E,0.00,0.00,010070,,*19 $GPGGA,000000.000,5208.626,N,01643.305,E,0,00,0.0,0.000,M,0.0,M,,*66 $GPRMC,000000.000,V,5208.400,N,01643.820,E,0.00,0.00,010070,,*13 $GPGGA,000000.000,5208.400,N,01643.820,E,0,00,0.0,0.000,M,0.0,M,,*6C $GPRMC,000000.000,V,5208.388,N,01643.847,E,0.00,0.00,010070,,*15 $GPGGA,000000.000,5208.388,N,01643.847,E,0,00,0.0,0.000,M,0.0,M,,*6A $GPRMC,000000.000,V,5208.408,N,01644.228,E,0.00,0.00,010070,,*1E $GPGGA,000000.000,5208.408,N,01644.228,E,0,00,0.0,0.000,M,0.0,M,,*61 $GPRMC,000000.000,V,5208.400,N,01644.335,E,0.00,0.00,010070,,*1B $GPGGA,000000.000,5208.400,N,01644.335,E,0,00,0.0,0.000,M,0.0,M,,*64 $GPRMC,000000.000,V,5208.417,N,01644.446,E,0.00,0.00,010070,,*1E $GPGGA,000000.000,5208.417,N,01644.446,E,0,00,0.0,0.000,M,0.0,M,,*61 $GPRMC,000000.000,V,5208.448,N,01644.703,E,0.00,0.00,010070,,*16 $GPGGA,000000.000,5208.448,N,01644.703,E,0,00,0.0,0.000,M,0.0,M,,*69 $GPRMC,000000.000,V,5208.476,N,01644.850,E,0.00,0.00,010070,,*12 $GPGGA,000000.000,5208.476,N,01644.850,E,0,00,0.0,0.000,M,0.0,M,,*6D $GPRMC,000000.000,V,5208.511,N,01645.088,E,0.00,0.00,010070,,*1E $GPGGA,000000.000,5208.511,N,01645.088,E,0,00,0.0,0.000,M,0.0,M,,*61 $GPRMC,000000.000,V,5208.540,N,01645.277,E,0.00,0.00,010070,,*18 $GPGGA,000000.000,5208.540,N,01645.277,E,0,00,0.0,0.000,M,0.0,M,,*67 $GPRMC,000000.000,V,5208.548,N,01645.374,E,0.00,0.00,010070,,*12 $GPGGA,000000.000,5208.548,N,01645.374,E,0,00,0.0,0.000,M,0.0,M,,*6D $GPRMC,000000.000,V,5208.545,N,01645.398,E,0.00,0.00,010070,,*1D $GPGGA,000000.000,5208.545,N,01645.398,E,0,00,0.0,0.000,M,0.0,M,,*62